Arcadia, Oregon
Current Conditions -  °F | °C
As of 9:53 PM on Wednesday 22 Oct 2014 (Local Time) from KONO Reporting Station
Broken Clouds Broken Clouds  
Wind Chill: 14°   Ceiling: 10000
Heat Index: 14°   Visibility: 10mi
Dew Point:   Wind: 17mph
Humidity: 49%   Direction: 170°S
Pressure: 29.97"   Gusts: NA
Location:  43.754°N, 117.202°W
Report Text: KONO 230353Z AUTO 17015KT 10SM BKN100 14/04 A2997 RMK AO2 SLP154 T01440039
Loading
Personal Weather Stations






























Interactive Weather Map
Tropical Storm Tracking
New forecast layout! Learn more

10-Day Weather Forecast

Advertisements
Track Severe Weather on mobile